createdAt,value
2023-05-05T00:00:35.697Z,88760.00
2023-05-05T00:01:35.732Z,88760.00
2023-05-05T00:02:35.858Z,88764.00
2023-05-05T00:03:35.949Z,88762.00
2023-05-05T00:04:35.836Z,88762.00
2023-05-05T00:05:35.902Z,88762.00
2023-05-05T00:06:35.972Z,88762.00
2023-05-05T00:07:36.052Z,88762.00
2023-05-05T00:08:36.112Z,88760.00
2023-05-05T00:09:36.221Z,88760.00
2023-05-05T00:10:36.279Z,88760.00
2023-05-05T00:11:36.348Z,88756.00
2023-05-05T00:12:36.445Z,88756.00
2023-05-05T00:13:36.592Z,88758.00
2023-05-05T00:14:36.588Z,88756.00
2023-05-05T00:15:36.665Z,88756.00
2023-05-05T00:16:36.819Z,88756.00
2023-05-05T00:17:36.832Z,88756.00
2023-05-05T00:18:36.890Z,88758.00
2023-05-05T00:19:36.985Z,88758.00
2023-05-05T00:20:37.016Z,88758.00
2023-05-05T00:21:37.134Z,88758.00
2023-05-05T00:22:37.336Z,88758.00
2023-05-05T00:23:37.302Z,88758.00
2023-05-05T00:24:37.325Z,88756.00
2023-05-05T00:25:37.521Z,88760.00
2023-05-05T00:26:38.205Z,88758.00
2023-05-05T00:27:40.178Z,88760.00
2023-05-05T00:28:37.614Z,88760.00
2023-05-05T00:29:37.616Z,88760.00
2023-05-05T00:30:38.162Z,88760.00
2023-05-05T00:31:37.745Z,88762.00
2023-05-05T00:32:37.745Z,88760.00
2023-05-05T00:33:37.682Z,88762.00
2023-05-05T00:34:37.720Z,88762.00
2023-05-05T00:35:37.723Z,88762.00
2023-05-05T00:36:37.758Z,88760.00
2023-05-05T00:37:37.793Z,88762.00
2023-05-05T00:38:37.792Z,88758.00
2023-05-05T00:39:37.868Z,88758.00
2023-05-05T00:40:37.964Z,88756.00
2023-05-05T00:41:38.037Z,88758.00
2023-05-05T00:42:38.116Z,88756.00
2023-05-05T00:43:38.182Z,88758.00
2023-05-05T00:44:38.281Z,88758.00
2023-05-05T00:45:38.352Z,88756.00
2023-05-05T00:46:38.455Z,88758.00
2023-05-05T00:47:38.544Z,88749.00
2023-05-05T00:48:38.594Z,88749.00
2023-05-05T00:49:38.699Z,88756.00
2023-05-05T00:50:38.743Z,88758.00
2023-05-05T00:51:38.810Z,88749.00
2023-05-05T00:52:38.913Z,88747.00
2023-05-05T00:53:39.008Z,88747.00
2023-05-05T00:54:39.059Z,88747.00
2023-05-05T00:55:39.143Z,88756.00
2023-05-05T00:56:39.229Z,88749.00
2023-05-05T00:57:39.290Z,88745.00
2023-05-05T00:58:39.369Z,88747.00
2023-05-05T00:59:39.464Z,88747.00
2023-05-05T01:00:39.532Z,88743.00
2023-05-05T01:01:39.656Z,88745.00
2023-05-05T01:02:39.781Z,88743.00
2023-05-05T01:03:39.855Z,88745.00
2023-05-05T01:04:39.827Z,88743.00
2023-05-05T01:05:39.922Z,88741.00
2023-05-05T01:06:39.993Z,88745.00
2023-05-05T01:07:40.066Z,88743.00
2023-05-05T01:08:40.124Z,88743.00
2023-05-05T01:09:40.197Z,88741.00
2023-05-05T01:10:40.280Z,88739.00
2023-05-05T01:11:40.379Z,88741.00
2023-05-05T01:12:40.716Z,88739.00
2023-05-05T01:13:40.512Z,88739.00
2023-05-05T01:14:40.591Z,88737.00
2023-05-05T01:15:40.684Z,88737.00
2023-05-05T01:16:40.805Z,88737.00
2023-05-05T01:17:40.891Z,88737.00
2023-05-05T01:18:40.928Z,88739.00
2023-05-05T01:19:41.033Z,88741.00
2023-05-05T01:20:41.091Z,88743.00
2023-05-05T01:21:41.180Z,88741.00
2023-05-05T01:22:41.254Z,88743.00
2023-05-05T01:23:41.308Z,88741.00
2023-05-05T01:24:41.417Z,88741.00
2023-05-05T01:25:41.480Z,88741.00
2023-05-05T01:26:41.555Z,88743.00
2023-05-05T01:27:41.632Z,88737.00
2023-05-05T01:28:41.731Z,88737.00
2023-05-05T01:29:41.798Z,88739.00
2023-05-05T01:30:41.872Z,88739.00
2023-05-05T01:31:42.029Z,88741.00
2023-05-05T01:32:42.067Z,88741.00
2023-05-05T01:33:42.114Z,88739.00
2023-05-05T01:34:42.174Z,88739.00
2023-05-05T01:35:42.250Z,88739.00
2023-05-05T01:36:42.424Z,88737.00
2023-05-05T01:37:42.418Z,88737.00
2023-05-05T01:38:42.505Z,88739.00
2023-05-05T01:39:42.563Z,88739.00
2023-05-05T01:40:42.652Z,88739.00
2023-05-05T01:41:42.737Z,88737.00
2023-05-05T01:42:42.809Z,88739.00
2023-05-05T01:43:42.920Z,88739.00
2023-05-05T01:44:42.960Z,88739.00
2023-05-05T01:45:43.015Z,88743.00
2023-05-05T01:46:42.988Z,88741.00
2023-05-05T01:47:43.040Z,88745.00
2023-05-05T01:48:43.070Z,88743.00
2023-05-05T01:49:43.052Z,88745.00
2023-05-05T01:50:43.069Z,88745.00
2023-05-05T01:51:43.092Z,88743.00
2023-05-05T01:52:43.125Z,88745.00
2023-05-05T01:53:43.138Z,88747.00
2023-05-05T01:54:43.202Z,88745.00
2023-05-05T01:55:43.267Z,88749.00
2023-05-05T01:56:43.338Z,88749.00
2023-05-05T01:57:43.412Z,88758.00
2023-05-05T01:58:43.534Z,88756.00
2023-05-05T01:59:43.560Z,88756.00
2023-05-05T02:00:43.663Z,88758.00
2023-05-05T02:01:43.785Z,88756.00
2023-05-05T02:02:43.826Z,88758.00
2023-05-05T02:03:43.856Z,88758.00
2023-05-05T02:04:43.948Z,88758.00
2023-05-05T02:05:44.081Z,88758.00
2023-05-05T02:06:44.104Z,88756.00
2023-05-05T02:07:44.215Z,88758.00
2023-05-05T02:08:44.258Z,88758.00
2023-05-05T02:09:44.343Z,88749.00
2023-05-05T02:10:44.442Z,88749.00
2023-05-05T02:11:44.499Z,88749.00
2023-05-05T02:12:44.718Z,88756.00
2023-05-05T02:13:44.722Z,88756.00
2023-05-05T02:14:44.723Z,88758.00
2023-05-05T02:15:44.872Z,88758.00
2023-05-05T02:16:44.871Z,88749.00
2023-05-05T02:17:44.969Z,88756.00
2023-05-05T02:18:45.040Z,88756.00
2023-05-05T02:19:45.168Z,88760.00
2023-05-05T02:20:45.187Z,88758.00
2023-05-05T02:21:45.265Z,88760.00
2023-05-05T02:22:45.336Z,88760.00
2023-05-05T02:23:45.406Z,88758.00
2023-05-05T02:24:45.505Z,88758.00
2023-05-05T02:25:45.578Z,88760.00
2023-05-05T02:26:45.654Z,88762.00
2023-05-05T02:27:45.753Z,88758.00
2023-05-05T02:28:45.828Z,88760.00
2023-05-05T02:29:45.895Z,88760.00
2023-05-05T02:30:45.959Z,88758.00
2023-05-05T02:31:46.129Z,88758.00
2023-05-05T02:32:46.169Z,88756.00
2023-05-05T02:33:46.183Z,88760.00
2023-05-05T02:34:46.261Z,88756.00
2023-05-05T02:35:46.346Z,88758.00
2023-05-05T02:36:46.416Z,88760.00
2023-05-05T02:37:46.485Z,88760.00
2023-05-05T02:38:46.628Z,88758.00
2023-05-05T02:39:46.659Z,88758.00
2023-05-05T02:40:46.765Z,88760.00
2023-05-05T02:41:46.838Z,88760.00
2023-05-05T02:42:46.969Z,88762.00
2023-05-05T02:43:47.006Z,88760.00
2023-05-05T02:44:47.079Z,88760.00
2023-05-05T02:45:47.141Z,88758.00
2023-05-05T02:46:47.307Z,88758.00
2023-05-05T02:47:47.319Z,88758.00
2023-05-05T02:48:47.426Z,88758.00
2023-05-05T02:49:47.528Z,88762.00
2023-05-05T02:50:47.589Z,88762.00
2023-05-05T02:51:47.611Z,88762.00
2023-05-05T02:52:47.725Z,88764.00
2023-05-05T02:53:48.737Z,88762.00
2023-05-05T02:54:47.874Z,88762.00
2023-05-05T02:55:47.950Z,88762.00
2023-05-05T02:56:48.020Z,88762.00
2023-05-05T02:57:48.087Z,88760.00
2023-05-05T02:58:48.175Z,88762.00
2023-05-05T02:59:48.251Z,88762.00
2023-05-05T03:00:48.326Z,88762.00
2023-05-05T03:01:48.402Z,88760.00
2023-05-05T03:02:48.467Z,88760.00
2023-05-05T03:03:48.582Z,88758.00
2023-05-05T03:04:48.400Z,88764.00
2023-05-05T03:05:48.432Z,88762.00
2023-05-05T03:06:48.476Z,88762.00
2023-05-05T03:07:48.479Z,88760.00
2023-05-05T03:08:48.521Z,88762.00
2023-05-05T03:09:48.544Z,88760.00
2023-05-05T03:10:48.544Z,88762.00
2023-05-05T03:11:48.555Z,88762.00
2023-05-05T03:12:48.631Z,88762.00
2023-05-05T03:13:48.643Z,88762.00
2023-05-05T03:14:48.655Z,88760.00
2023-05-05T03:15:48.672Z,88760.00
2023-05-05T03:16:48.663Z,88760.00
2023-05-05T03:17:48.747Z,88758.00
2023-05-05T03:18:48.692Z,88758.00
2023-05-05T03:19:48.708Z,88758.00
2023-05-05T03:20:48.736Z,88756.00
2023-05-05T03:21:48.763Z,88747.00
2023-05-05T03:22:48.817Z,88747.00
2023-05-05T03:23:48.906Z,88749.00
2023-05-05T03:24:48.984Z,88747.00
2023-05-05T03:25:49.122Z,88745.00
2023-05-05T03:26:49.162Z,88741.00
2023-05-05T03:27:49.254Z,88741.00
2023-05-05T03:28:49.326Z,88741.00
2023-05-05T03:29:49.356Z,88739.00
2023-05-05T03:30:49.404Z,88741.00
2023-05-05T03:31:49.419Z,88739.00
2023-05-05T03:32:49.443Z,88741.00
2023-05-05T03:33:49.431Z,88741.00
2023-05-05T03:34:49.443Z,88741.00
2023-05-05T03:35:49.469Z,88741.00
2023-05-05T03:36:49.506Z,88739.00
2023-05-05T03:37:49.542Z,88739.00
2023-05-05T03:38:49.612Z,88741.00
2023-05-05T03:39:49.693Z,88741.00
2023-05-05T03:40:49.715Z,88745.00
2023-05-05T03:41:49.798Z,88743.00
2023-05-05T03:42:49.751Z,88745.00
2023-05-05T03:43:49.756Z,88745.00
2023-05-05T03:44:49.786Z,88745.00
2023-05-05T03:45:49.815Z,88745.00
2023-05-05T03:46:49.833Z,88747.00
2023-05-05T03:47:49.893Z,88745.00
2023-05-05T03:48:49.901Z,88743.00
2023-05-05T03:49:50.002Z,88743.00
2023-05-05T03:50:50.103Z,88743.00
2023-05-05T03:51:50.173Z,88743.00
2023-05-05T03:52:50.256Z,88735.00
2023-05-05T03:53:50.349Z,88735.00
2023-05-05T03:54:50.426Z,88733.00
2023-05-05T03:55:50.532Z,88733.00
2023-05-05T03:56:50.604Z,88733.00
2023-05-05T03:57:50.700Z,88733.00
2023-05-05T03:58:50.774Z,88735.00
2023-05-05T03:59:50.879Z,88733.00
2023-05-05T04:00:50.989Z,88733.00
2023-05-05T04:01:51.058Z,88735.00
2023-05-05T04:02:51.201Z,88729.00
2023-05-05T04:03:51.273Z,88731.00
2023-05-05T04:04:51.271Z,88733.00
2023-05-05T04:05:51.334Z,88731.00
2023-05-05T04:06:51.400Z,88729.00
2023-05-05T04:07:51.400Z,88731.00
2023-05-05T04:08:51.446Z,88729.00
2023-05-05T04:09:51.444Z,88731.00
2023-05-05T04:10:51.489Z,88729.00
2023-05-05T04:11:51.504Z,88733.00
2023-05-05T04:12:51.652Z,88729.00
2023-05-05T04:13:51.585Z,88731.00
2023-05-05T04:14:51.628Z,88729.00
2023-05-05T04:15:51.671Z,88733.00
2023-05-05T04:16:51.688Z,88735.00
2023-05-05T04:17:51.747Z,88737.00
2023-05-05T04:18:51.784Z,88733.00
2023-05-05T04:19:51.805Z,88737.00
2023-05-05T04:20:51.865Z,88735.00
2023-05-05T04:21:51.900Z,88735.00
2023-05-05T04:22:52.815Z,88735.00
2023-05-05T04:23:52.007Z,88743.00
2023-05-05T04:24:52.041Z,88745.00
2023-05-05T04:25:52.091Z,88741.00
2023-05-05T04:26:52.140Z,88743.00
2023-05-05T04:27:52.184Z,88743.00
2023-05-05T04:28:52.226Z,88743.00
2023-05-05T04:29:52.249Z,88743.00
2023-05-05T04:30:52.323Z,88743.00
2023-05-05T04:31:52.334Z,88745.00
2023-05-05T04:32:52.435Z,88745.00
2023-05-05T04:33:52.418Z,88743.00
2023-05-05T04:34:52.435Z,88749.00
2023-05-05T04:35:52.447Z,88747.00
2023-05-05T04:36:52.475Z,88747.00
2023-05-05T04:37:52.511Z,88743.00
2023-05-05T04:38:52.562Z,88745.00
2023-05-05T04:39:52.590Z,88743.00
2023-05-05T04:40:52.616Z,88745.00
2023-05-05T04:41:52.653Z,88745.00
2023-05-05T04:42:52.700Z,88741.00
2023-05-05T04:43:52.743Z,88741.00
2023-05-05T04:44:52.772Z,88739.00
2023-05-05T04:45:52.831Z,88739.00
2023-05-05T04:46:52.915Z,88739.00
2023-05-05T04:47:53.028Z,88739.00
2023-05-05T04:48:53.002Z,88739.00
2023-05-05T04:49:53.081Z,88739.00
2023-05-05T04:50:53.155Z,88739.00
2023-05-05T04:51:53.180Z,88739.00
2023-05-05T04:52:53.259Z,88737.00
2023-05-05T04:53:53.298Z,88731.00
2023-05-05T04:54:53.357Z,88731.00
2023-05-05T04:55:53.432Z,88729.00
2023-05-05T04:56:53.432Z,88733.00
2023-05-05T04:57:53.498Z,88737.00
2023-05-05T04:58:53.499Z,88739.00
2023-05-05T04:59:53.546Z,88739.00
2023-05-05T05:00:53.565Z,88741.00
2023-05-05T05:01:53.642Z,88741.00
2023-05-05T05:02:53.728Z,88743.00
2023-05-05T05:03:53.757Z,88739.00
2023-05-05T05:04:53.722Z,88739.00
2023-05-05T05:05:53.745Z,88739.00
2023-05-05T05:06:53.770Z,88739.00
2023-05-05T05:07:53.824Z,88745.00
2023-05-05T05:08:53.864Z,88743.00
2023-05-05T05:09:53.882Z,88745.00
2023-05-05T05:10:53.897Z,88743.00
2023-05-05T05:11:53.936Z,88745.00
2023-05-05T05:12:53.983Z,88743.00
2023-05-05T05:13:54.010Z,88745.00
2023-05-05T05:14:54.050Z,88745.00
2023-05-05T05:15:54.077Z,88743.00
2023-05-05T05:16:54.271Z,88741.00
2023-05-05T05:17:54.194Z,88743.00
2023-05-05T05:18:54.215Z,88741.00
2023-05-05T05:19:54.191Z,88743.00
2023-05-05T05:20:54.228Z,88741.00
2023-05-05T05:21:54.231Z,88741.00
2023-05-05T05:22:54.273Z,88741.00
2023-05-05T05:23:54.334Z,88739.00
2023-05-05T05:24:54.319Z,88741.00
2023-05-05T05:25:54.329Z,88743.00
2023-05-05T05:26:54.408Z,88741.00
2023-05-05T05:28:06.176Z,88743.00
2023-05-05T05:28:55.428Z,88739.00
2023-05-05T05:29:54.444Z,88741.00
2023-05-05T05:30:54.477Z,88743.00
2023-05-05T05:31:54.588Z,88743.00
2023-05-05T05:32:54.551Z,88741.00
2023-05-05T05:33:54.822Z,88745.00
2023-05-05T05:34:54.585Z,88741.00
2023-05-05T05:35:54.624Z,88739.00
2023-05-05T05:36:54.626Z,88741.00
2023-05-05T05:37:54.662Z,88741.00
2023-05-05T05:38:54.732Z,88741.00
2023-05-05T05:39:54.812Z,88741.00
2023-05-05T05:40:54.793Z,88743.00
2023-05-05T05:41:54.805Z,88741.00
2023-05-05T05:42:54.846Z,88743.00
2023-05-05T05:43:54.895Z,88743.00
2023-05-05T05:44:54.913Z,88741.00
2023-05-05T05:45:54.994Z,88743.00
2023-05-05T05:46:55.026Z,88741.00
2023-05-05T05:47:55.093Z,88739.00
2023-05-05T05:48:55.089Z,88743.00
2023-05-05T05:49:55.120Z,88745.00
2023-05-05T05:50:55.194Z,88743.00
2023-05-05T05:51:55.198Z,88745.00
2023-05-05T05:52:55.226Z,88745.00
2023-05-05T05:53:57.459Z,88747.00
2023-05-05T05:54:55.301Z,88745.00
2023-05-05T05:55:55.337Z,88747.00
2023-05-05T05:56:55.374Z,88747.00
2023-05-05T05:57:55.465Z,88745.00
2023-05-05T05:58:55.444Z,88743.00
2023-05-05T05:59:55.481Z,88747.00
2023-05-05T06:00:55.512Z,88745.00
2023-05-05T06:01:55.550Z,88745.00
2023-05-05T06:02:55.804Z,88745.00
2023-05-05T06:03:55.886Z,88745.00
2023-05-05T06:04:55.854Z,88745.00
2023-05-05T06:05:55.904Z,88741.00
2023-05-05T06:06:56.009Z,88741.00
2023-05-05T06:07:56.136Z,88739.00
2023-05-05T06:08:56.143Z,88739.00
2023-05-05T06:09:56.247Z,88737.00
2023-05-05T06:10:56.330Z,88737.00
2023-05-05T06:11:56.390Z,88739.00
2023-05-05T06:12:56.492Z,88739.00
2023-05-05T06:13:56.805Z,88737.00
2023-05-05T06:14:56.635Z,88735.00
2023-05-05T06:15:56.783Z,88737.00
2023-05-05T06:16:56.798Z,88735.00
2023-05-05T06:17:56.945Z,88735.00
2023-05-05T06:18:56.948Z,88733.00
2023-05-05T06:19:57.046Z,88733.00
2023-05-05T06:20:57.130Z,88731.00
2023-05-05T06:21:57.197Z,88733.00
2023-05-05T06:22:57.259Z,88731.00
2023-05-05T06:23:57.335Z,88733.00
2023-05-05T06:24:57.395Z,88731.00
2023-05-05T06:25:57.480Z,88729.00
2023-05-05T06:26:57.549Z,88729.00
2023-05-05T06:27:57.610Z,88729.00
2023-05-05T06:28:57.858Z,88725.00
2023-05-05T06:29:57.746Z,88725.00
2023-05-05T06:30:57.785Z,88725.00
2023-05-05T06:31:57.869Z,88725.00
2023-05-05T06:32:57.839Z,88723.00
2023-05-05T06:33:57.844Z,88725.00
2023-05-05T06:34:57.861Z,88721.00
2023-05-05T06:35:57.948Z,88719.00
2023-05-05T06:36:57.897Z,88725.00
2023-05-05T06:37:57.973Z,88723.00
2023-05-05T06:38:58.385Z,88719.00
2023-05-05T06:39:58.007Z,88719.00
2023-05-05T06:40:58.001Z,88723.00
2023-05-05T06:41:58.045Z,88723.00
2023-05-05T06:42:58.157Z,88719.00
2023-05-05T06:43:58.178Z,88721.00
2023-05-05T06:44:58.154Z,88719.00
2023-05-05T06:45:58.162Z,88719.00
2023-05-05T06:46:58.394Z,88716.00
2023-05-05T06:47:59.315Z,88716.00
2023-05-05T06:48:58.307Z,88719.00
2023-05-05T06:49:58.408Z,88718.00
2023-05-05T06:50:58.448Z,88712.00
2023-05-05T06:51:59.358Z,88712.00
2023-05-05T06:52:58.558Z,88712.00
2023-05-05T06:53:58.633Z,88710.00
2023-05-05T06:54:58.649Z,88710.00
2023-05-05T06:55:58.718Z,88714.00
2023-05-05T06:56:59.573Z,88714.00
2023-05-05T06:57:58.692Z,88714.00
2023-05-05T06:58:58.935Z,88714.00
2023-05-05T06:59:58.764Z,88718.00
2023-05-05T07:00:58.790Z,88718.00
2023-05-05T07:01:58.803Z,88716.00
2023-05-05T07:02:58.877Z,88714.00
2023-05-05T07:03:58.951Z,88714.00
2023-05-05T07:04:58.934Z,88714.00
2023-05-05T07:05:58.925Z,88714.00
2023-05-05T07:06:58.978Z,88714.00
2023-05-05T07:07:59.057Z,88714.00
2023-05-05T07:08:59.126Z,88712.00
2023-05-05T07:09:59.125Z,88712.00
2023-05-05T07:10:59.197Z,88710.00
2023-05-05T07:11:59.270Z,88706.00
2023-05-05T07:12:59.658Z,88708.00
2023-05-05T07:13:59.857Z,88710.00
2023-05-05T07:15:04.833Z,88710.00
2023-05-05T07:16:00.755Z,88710.00
2023-05-05T07:16:59.657Z,88708.00
2023-05-05T07:17:59.569Z,88708.00
2023-05-05T07:18:59.580Z,88708.00
2023-05-05T07:19:59.590Z,88706.00
2023-05-05T07:20:59.644Z,88704.00
2023-05-05T07:21:59.656Z,88704.00
2023-05-05T07:22:59.740Z,88702.00
2023-05-05T07:23:59.737Z,88702.00
2023-05-05T07:24:59.734Z,88700.00
2023-05-05T07:25:59.781Z,88700.00
2023-05-05T07:26:59.805Z,88700.00
2023-05-05T07:27:59.833Z,88700.00
2023-05-05T07:28:59.888Z,88698.00
2023-05-05T07:29:59.842Z,88696.00
2023-05-05T07:31:00.907Z,88694.00
2023-05-05T07:32:00.082Z,88694.00
2023-05-05T07:33:00.005Z,88696.00
2023-05-05T07:34:00.061Z,88696.00
2023-05-05T07:35:00.057Z,88692.00
2023-05-05T07:36:00.129Z,88692.00
2023-05-05T07:37:00.157Z,88694.00
2023-05-05T07:38:00.196Z,88694.00
2023-05-05T07:39:00.165Z,88692.00
2023-05-05T07:40:00.248Z,88690.00
2023-05-05T07:41:00.231Z,88690.00
2023-05-05T07:42:00.253Z,88690.00
2023-05-05T07:43:00.380Z,88688.00
2023-05-05T07:44:00.275Z,88688.00
2023-05-05T07:45:00.311Z,88686.00
2023-05-05T07:46:00.413Z,88686.00
2023-05-05T07:47:00.420Z,88686.00
2023-05-05T07:48:00.462Z,88682.00
2023-05-05T07:49:00.397Z,88682.00
2023-05-05T07:51:27.156Z,88676.00
2023-05-05T07:52:25.128Z,88674.00
2023-05-05T07:53:20.543Z,88670.00
2023-05-05T07:54:19.530Z,88672.00
2023-05-05T07:55:19.512Z,88670.00
2023-05-05T07:56:21.597Z,88670.00
2023-05-05T07:57:19.544Z,88674.00
2023-05-05T07:58:19.550Z,88672.00
2023-05-05T07:59:19.570Z,88670.00
2023-05-05T08:00:19.597Z,88664.00
2023-05-05T08:01:19.541Z,88663.00
2023-05-05T08:02:19.667Z,88661.00
2023-05-05T08:03:19.683Z,88663.00
2023-05-05T08:04:19.568Z,88661.00
2023-05-05T08:05:19.606Z,88663.00
2023-05-05T08:06:19.596Z,88663.00
2023-05-05T08:07:19.632Z,88659.00
2023-05-05T08:08:19.620Z,88655.00
2023-05-05T08:09:19.713Z,88657.00
2023-05-05T08:10:19.667Z,88657.00
2023-05-05T08:11:19.756Z,88655.00
2023-05-05T08:12:19.694Z,88655.00
2023-05-05T08:13:19.717Z,88653.00
2023-05-05T08:14:19.734Z,88655.00
2023-05-05T08:15:19.772Z,88653.00
2023-05-05T08:16:19.755Z,88653.00
2023-05-05T08:17:19.700Z,88653.00
2023-05-05T08:18:19.801Z,88651.00
2023-05-05T08:19:28.656Z,88653.00
2023-05-05T08:20:20.732Z,88653.00
2023-05-05T08:21:19.763Z,88649.00
2023-05-05T08:22:19.776Z,88647.00
2023-05-05T08:23:19.765Z,88651.00
2023-05-05T08:24:19.788Z,88647.00
2023-05-05T08:25:19.803Z,88647.00
2023-05-05T08:26:19.790Z,88647.00
2023-05-05T08:27:19.784Z,88649.00
2023-05-05T08:28:19.832Z,88649.00
2023-05-05T08:29:19.842Z,88653.00
2023-05-05T08:30:19.862Z,88651.00
2023-05-05T08:31:19.872Z,88653.00
2023-05-05T08:32:19.832Z,88649.00
2023-05-05T08:33:19.848Z,88649.00
2023-05-05T08:34:19.974Z,88645.00
2023-05-05T08:35:19.851Z,88647.00
2023-05-05T08:36:19.855Z,88641.00
2023-05-05T08:37:19.871Z,88643.00
2023-05-05T08:38:19.893Z,88641.00
2023-05-05T08:39:19.913Z,88639.00
2023-05-05T08:40:19.991Z,88641.00
2023-05-05T08:41:20.060Z,88637.00
2023-05-05T08:42:35.651Z,88641.00
2023-05-05T08:43:20.907Z,88639.00
2023-05-05T08:44:19.930Z,88635.00
2023-05-05T08:45:19.921Z,88635.00
2023-05-05T08:46:19.948Z,88635.00
2023-05-05T08:47:19.944Z,88633.00
2023-05-05T08:48:19.953Z,88635.00
2023-05-05T08:49:19.957Z,88633.00
2023-05-05T08:50:20.094Z,88631.00
2023-05-05T08:51:20.053Z,88631.00
2023-05-05T08:52:20.172Z,88633.00
2023-05-05T08:53:20.217Z,88629.00
2023-05-05T08:54:20.262Z,88629.00
2023-05-05T08:55:20.270Z,88631.00
2023-05-05T08:56:20.379Z,88633.00
2023-05-05T08:57:20.274Z,88635.00
2023-05-05T08:58:20.274Z,88631.00
2023-05-05T08:59:20.326Z,88629.00
2023-05-05T09:00:20.348Z,88631.00
2023-05-05T09:01:20.308Z,88629.00
2023-05-05T09:02:20.388Z,88631.00
2023-05-05T09:03:20.345Z,88629.00
2023-05-05T09:04:20.413Z,88631.00
2023-05-05T09:05:20.330Z,88633.00
2023-05-05T09:06:20.388Z,88629.00
2023-05-05T09:07:20.314Z,88627.00
2023-05-05T09:08:20.329Z,88629.00
2023-05-05T09:09:20.377Z,88625.00
2023-05-05T09:10:20.336Z,88623.00
2023-05-05T09:11:20.340Z,88621.00
2023-05-05T09:12:20.316Z,88623.00
2023-05-05T09:13:20.403Z,88619.00
2023-05-05T09:14:20.337Z,88617.00
2023-05-05T09:15:20.314Z,88616.00
2023-05-05T09:16:20.339Z,88617.00
2023-05-05T09:17:20.323Z,88617.00
2023-05-05T09:18:20.330Z,88614.00
2023-05-05T09:19:20.342Z,88614.00
2023-05-05T09:20:20.335Z,88614.00
2023-05-05T09:21:20.372Z,88612.00
2023-05-05T09:22:20.523Z,88612.00
2023-05-05T09:23:20.523Z,88612.00
2023-05-05T09:24:20.570Z,88610.00
2023-05-05T09:25:20.683Z,88612.00
2023-05-05T09:26:20.688Z,88610.00
2023-05-05T09:27:20.727Z,88608.00
2023-05-05T09:28:20.928Z,88608.00
2023-05-05T09:29:20.894Z,88610.00
2023-05-05T09:30:20.942Z,88610.00
2023-05-05T09:31:21.078Z,88610.00
2023-05-05T09:32:21.057Z,88610.00
2023-05-05T09:33:21.146Z,88612.00
2023-05-05T09:34:21.197Z,88610.00
2023-05-05T09:35:21.205Z,88608.00
2023-05-05T09:36:21.277Z,88608.00
2023-05-05T09:37:21.218Z,88608.00
2023-05-05T09:38:21.339Z,88606.00
2023-05-05T09:39:21.192Z,88606.00
2023-05-05T09:40:21.214Z,88602.00
2023-05-05T09:41:21.187Z,88604.00
2023-05-05T09:42:21.181Z,88604.00
2023-05-05T09:43:21.238Z,88604.00
2023-05-05T09:44:21.192Z,88604.00
2023-05-05T09:45:21.383Z,88604.00
2023-05-05T09:46:21.357Z,88604.00
2023-05-05T09:47:29.421Z,88606.00
2023-05-05T09:48:23.294Z,88602.00
2023-05-05T09:49:21.462Z,88604.00
2023-05-05T09:50:21.352Z,88602.00
2023-05-05T09:51:21.376Z,88600.00
2023-05-05T09:52:21.351Z,88604.00
2023-05-05T09:53:21.330Z,88602.00
2023-05-05T09:54:21.413Z,88604.00
2023-05-05T09:55:21.343Z,88602.00
2023-05-05T09:56:21.346Z,88602.00
2023-05-05T09:57:21.382Z,88600.00
2023-05-05T09:58:21.491Z,88602.00
2023-05-05T09:59:21.503Z,88602.00
2023-05-05T10:00:21.406Z,88598.00
2023-05-05T10:01:21.415Z,88600.00
2023-05-05T10:02:21.416Z,88598.00
2023-05-05T10:03:21.408Z,88600.00
2023-05-05T10:04:21.509Z,88598.00
2023-05-05T10:05:21.456Z,88598.00
2023-05-05T10:06:21.398Z,88598.00
2023-05-05T10:07:21.383Z,88596.00
2023-05-05T10:08:21.406Z,88598.00
2023-05-05T10:09:21.429Z,88598.00
2023-05-05T10:10:21.523Z,88596.00
2023-05-05T10:11:21.401Z,88596.00
2023-05-05T10:12:21.389Z,88592.00
2023-05-05T10:13:21.401Z,88592.00
2023-05-05T10:14:21.436Z,88592.00
2023-05-05T10:15:21.482Z,88590.00
2023-05-05T10:16:21.585Z,88588.00
2023-05-05T10:17:21.588Z,88586.00
2023-05-05T10:18:21.687Z,88588.00
2023-05-05T10:19:21.726Z,88588.00
2023-05-05T10:20:21.656Z,88584.00
2023-05-05T10:21:21.660Z,88586.00
2023-05-05T10:22:21.663Z,88582.00
2023-05-05T10:23:21.626Z,88582.00
2023-05-05T10:24:21.633Z,88580.00
2023-05-05T10:25:22.243Z,88578.00
2023-05-05T10:26:21.732Z,88578.00
2023-05-05T10:27:21.676Z,88576.00
2023-05-05T10:28:21.667Z,88576.00
2023-05-05T10:29:21.711Z,88574.00
2023-05-05T10:30:21.777Z,88576.00
2023-05-05T10:31:26.382Z,88574.00
2023-05-05T10:32:51.102Z,88574.00
2023-05-05T10:34:21.855Z,88572.00
2023-05-05T10:35:21.804Z,88568.00
2023-05-05T10:36:21.786Z,88568.00
2023-05-05T10:37:21.831Z,88570.00
2023-05-05T10:38:22.166Z,88566.00
2023-05-05T10:39:21.866Z,88561.00
2023-05-05T10:40:21.801Z,88559.00
2023-05-05T10:41:21.760Z,88557.00
2023-05-05T10:42:21.879Z,88553.00
2023-05-05T10:43:21.772Z,88549.00
2023-05-05T10:44:21.769Z,88551.00
2023-05-05T10:45:21.771Z,88551.00
2023-05-05T10:46:21.767Z,88545.00
2023-05-05T10:47:21.869Z,88549.00
2023-05-05T10:48:21.749Z,88551.00
2023-05-05T10:49:21.748Z,88547.00
2023-05-05T10:50:21.778Z,88543.00
2023-05-05T10:51:35.291Z,88547.00
2023-05-05T10:52:22.738Z,88541.00
2023-05-05T10:53:21.748Z,88541.00
2023-05-05T10:54:21.792Z,88539.00
2023-05-05T10:55:21.752Z,88537.00
2023-05-05T10:56:21.757Z,88535.00
2023-05-05T10:57:21.738Z,88537.00
2023-05-05T10:58:22.808Z,88533.00
2023-05-05T10:59:21.733Z,88533.00
2023-05-05T11:00:21.722Z,88531.00
2023-05-05T11:01:21.776Z,88529.00
2023-05-05T11:02:21.733Z,88527.00
2023-05-05T11:03:21.810Z,88525.00
2023-05-05T11:04:21.754Z,88523.00
2023-05-05T11:05:21.783Z,88525.00
2023-05-05T11:06:21.733Z,88525.00
2023-05-05T11:07:21.775Z,88521.00
2023-05-05T11:08:21.740Z,88519.00
2023-05-05T11:09:21.758Z,88519.00
2023-05-05T11:10:21.764Z,88515.00
2023-05-05T11:11:21.740Z,88513.00
2023-05-05T11:12:21.773Z,88513.00
2023-05-05T11:13:21.802Z,88511.00
2023-05-05T11:14:21.823Z,88513.00
2023-05-05T11:15:21.765Z,88513.00
2023-05-05T11:16:22.770Z,88506.00
2023-05-05T11:17:21.784Z,88506.00
2023-05-05T11:18:21.772Z,88506.00
2023-05-05T11:19:21.777Z,88502.00
2023-05-05T11:20:21.801Z,88502.00
2023-05-05T11:21:21.776Z,88500.00
2023-05-05T11:22:21.812Z,88500.00
2023-05-05T11:23:21.793Z,88489.00
2023-05-05T11:24:21.788Z,88489.00
2023-05-05T11:25:22.770Z,88487.00
2023-05-05T11:26:21.786Z,88491.00
2023-05-05T11:27:21.787Z,88491.00
2023-05-05T11:28:21.831Z,88489.00
2023-05-05T11:29:21.888Z,88491.00
2023-05-05T11:30:21.928Z,88493.00
2023-05-05T11:31:21.926Z,88493.00
2023-05-05T11:32:21.878Z,88489.00
2023-05-05T11:33:21.895Z,88485.00
2023-05-05T11:34:21.867Z,88485.00
2023-05-05T11:35:21.877Z,88487.00
2023-05-05T11:36:21.871Z,88487.00
2023-05-05T11:37:21.850Z,88487.00
2023-05-05T11:38:21.833Z,88483.00
2023-05-05T11:39:21.869Z,88481.00
2023-05-05T11:40:21.855Z,88479.00
2023-05-05T11:41:21.840Z,88479.00
2023-05-05T11:42:21.899Z,88477.00
2023-05-05T11:43:21.954Z,88475.00
2023-05-05T11:44:21.990Z,88475.00
2023-05-05T11:45:22.083Z,88477.00
2023-05-05T11:46:22.102Z,88473.00
2023-05-05T11:47:22.142Z,88473.00